sensor_id;sensor_type;location;lat;lon;timestamp;pressure;altitude;pressure_sealevel;temperature;humidity
10261;BME280;5175;42.606;23.388;2023-01-30T00:01:31;93951.31;;;-0.01;100.00
10261;BME280;5175;42.606;23.388;2023-01-30T00:03:58;93941.69;;;-0.14;100.00
10261;BME280;5175;42.606;23.388;2023-01-30T00:06:25;93936.88;;;-0.17;100.00
10261;BME280;5175;42.606;23.388;2023-01-30T00:08:52;93932.59;;;-0.11;100.00
10261;BME280;5175;42.606;23.388;2023-01-30T00:11:20;93937.22;;;-0.07;100.00
10261;BME280;5175;42.606;23.388;2023-01-30T00:13:47;93934.47;;;-0.25;100.00
10261;BME280;5175;42.606;23.388;2023-01-30T00:16:15;93937.91;;;-0.31;100.00
10261;BME280;5175;42.606;23.388;2023-01-30T00:18:43;93935.41;;;-0.13;100.00
10261;BME280;5175;42.606;23.388;2023-01-30T00:21:12;93936.91;;;-0.23;100.00
10261;BME280;5175;42.606;23.388;2023-01-30T00:23:39;93933.13;;;-0.40;100.00
10261;BME280;5175;42.606;23.388;2023-01-30T00:26:06;93943.25;;;-0.44;100.00
10261;BME280;5175;42.606;23.388;2023-01-30T00:28:34;93936.84;;;-0.61;100.00
10261;BME280;5175;42.606;23.388;2023-01-30T00:31:01;93929.19;;;-0.63;100.00
10261;BME280;5175;42.606;23.388;2023-01-30T00:33:28;93946.13;;;-0.65;100.00
10261;BME280;5175;42.606;23.388;2023-01-30T00:35:56;93935.03;;;-0.60;100.00
10261;BME280;5175;42.606;23.388;2023-01-30T00:38:23;93933.47;;;-0.75;100.00
10261;BME280;5175;42.606;23.388;2023-01-30T00:40:50;93809.78;;;-1.54;100.00
10261;BME280;5175;42.606;23.388;2023-01-30T00:43:18;93933.41;;;-0.62;100.00
10261;BME280;5175;42.606;23.388;2023-01-30T00:46:07;93899.53;;;-0.56;100.00
10261;BME280;5175;42.606;23.388;2023-01-30T00:48:53;93924.22;;;-0.33;100.00
10261;BME280;5175;42.606;23.388;2023-01-30T00:51:21;93918.00;;;-0.38;100.00
10261;BME280;5175;42.606;23.388;2023-01-30T00:53:48;93891.28;;;-0.60;100.00
10261;BME280;5175;42.606;23.388;2023-01-30T00:56:15;93911.53;;;-0.36;100.00
10261;BME280;5175;42.606;23.388;2023-01-30T00:58:41;93913.91;;;-0.28;100.00
10261;BME280;5175;42.606;23.388;2023-01-30T01:01:09;93913.75;;;-0.33;100.00
10261;BME280;5175;42.606;23.388;2023-01-30T01:03:36;93921.25;;;-0.43;100.00
10261;BME280;5175;42.606;23.388;2023-01-30T01:06:03;93921.25;;;-0.36;100.00
10261;BME280;5175;42.606;23.388;2023-01-30T01:08:31;93914.41;;;-0.44;100.00
10261;BME280;5175;42.606;23.388;2023-01-30T01:10:58;93914.53;;;-0.26;100.00
10261;BME280;5175;42.606;23.388;2023-01-30T01:13:25;93916.91;;;-0.18;100.00
10261;BME280;5175;42.606;23.388;2023-01-30T01:15:51;93923.16;;;-0.19;100.00
10261;BME280;5175;42.606;23.388;2023-01-30T01:18:18;93915.19;;;-0.43;100.00
10261;BME280;5175;42.606;23.388;2023-01-30T01:20:45;93913.78;;;-0.39;100.00
10261;BME280;5175;42.606;23.388;2023-01-30T01:23:12;93887.59;;;-0.46;100.00
10261;BME280;5175;42.606;23.388;2023-01-30T01:25:40;93902.38;;;-0.58;100.00
10261;BME280;5175;42.606;23.388;2023-01-30T01:28:07;93909.00;;;-0.49;100.00
10261;BME280;5175;42.606;23.388;2023-01-30T01:30:34;93904.97;;;-0.58;100.00
10261;BME280;5175;42.606;23.388;2023-01-30T01:33:00;93905.81;;;-0.64;100.00
10261;BME280;5175;42.606;23.388;2023-01-30T01:35:27;93898.78;;;-0.70;100.00
10261;BME280;5175;42.606;23.388;2023-01-30T01:37:54;93903.59;;;-0.60;100.00
10261;BME280;5175;42.606;23.388;2023-01-30T01:40:22;93903.94;;;-0.50;100.00
10261;BME280;5175;42.606;23.388;2023-01-30T01:43:25;93903.34;;;-0.52;100.00
10261;BME280;5175;42.606;23.388;2023-01-30T01:45:54;93898.94;;;-0.52;100.00
10261;BME280;5175;42.606;23.388;2023-01-30T01:48:25;93860.00;;;-0.93;100.00
10261;BME280;5175;42.606;23.388;2023-01-30T01:50:56;93901.81;;;-0.73;100.00
10261;BME280;5175;42.606;23.388;2023-01-30T01:53:27;93886.31;;;-0.75;100.00
10261;BME280;5175;42.606;23.388;2023-01-30T01:55:57;93898.34;;;-0.54;100.00
10261;BME280;5175;42.606;23.388;2023-01-30T01:58:28;93890.47;;;-0.60;100.00
10261;BME280;5175;42.606;23.388;2023-01-30T02:00:58;93899.56;;;-0.63;100.00
10261;BME280;5175;42.606;23.388;2023-01-30T02:03:27;93884.13;;;-0.84;100.00
10261;BME280;5175;42.606;23.388;2023-01-30T02:05:58;93898.19;;;-0.72;100.00
10261;BME280;5175;42.606;23.388;2023-01-30T02:08:30;93901.00;;;-0.67;100.00
10261;BME280;5175;42.606;23.388;2023-01-30T02:11:02;93883.34;;;-0.91;100.00
10261;BME280;5175;42.606;23.388;2023-01-30T02:13:32;93898.84;;;-0.90;100.00
10261;BME280;5175;42.606;23.388;2023-01-30T02:16:01;93892.19;;;-0.92;100.00
10261;BME280;5175;42.606;23.388;2023-01-30T02:18:30;93898.63;;;-0.82;100.00
10261;BME280;5175;42.606;23.388;2023-01-30T02:24:24;93893.75;;;-0.72;100.00
10261;BME280;5175;42.606;23.388;2023-01-30T02:27:20;93907.84;;;-0.66;100.00
10261;BME280;5175;42.606;23.388;2023-01-30T02:30:17;93904.28;;;-0.91;100.00
10261;BME280;5175;42.606;23.388;2023-01-30T02:32:57;93896.75;;;-0.68;100.00
10261;BME280;5175;42.606;23.388;2023-01-30T02:35:31;93897.63;;;-0.87;100.00
10261;BME280;5175;42.606;23.388;2023-01-30T02:38:11;93889.41;;;-1.04;100.00
10261;BME280;5175;42.606;23.388;2023-01-30T02:40:51;93881.72;;;-0.92;100.00
10261;BME280;5175;42.606;23.388;2023-01-30T02:43:27;93875.53;;;-1.11;100.00
10261;BME280;5175;42.606;23.388;2023-01-30T02:46:01;93884.53;;;-0.81;100.00
10261;BME280;5175;42.606;23.388;2023-01-30T02:48:36;93889.78;;;-0.94;100.00
10261;BME280;5175;42.606;23.388;2023-01-30T02:51:08;93891.38;;;-0.86;100.00
10261;BME280;5175;42.606;23.388;2023-01-30T02:53:37;93883.31;;;-0.85;100.00
10261;BME280;5175;42.606;23.388;2023-01-30T02:56:05;93883.06;;;-0.70;100.00
10261;BME280;5175;42.606;23.388;2023-01-30T02:58:36;93827.63;;;-1.11;100.00
10261;BME280;5175;42.606;23.388;2023-01-30T03:01:38;93886.72;;;-0.78;100.00
10261;BME280;5175;42.606;23.388;2023-01-30T03:04:25;93888.75;;;-0.86;100.00
10261;BME280;5175;42.606;23.388;2023-01-30T03:07:15;93885.97;;;-0.91;100.00
10261;BME280;5175;42.606;23.388;2023-01-30T03:09:51;93891.41;;;-0.99;100.00
10261;BME280;5175;42.606;23.388;2023-01-30T03:12:28;93893.22;;;-1.00;100.00
10261;BME280;5175;42.606;23.388;2023-01-30T03:15:02;93876.72;;;-1.07;100.00
10261;BME280;5175;42.606;23.388;2023-01-30T03:17:31;93881.91;;;-0.87;100.00
10261;BME280;5175;42.606;23.388;2023-01-30T03:20:00;93864.78;;;-0.90;100.00
10261;BME280;5175;42.606;23.388;2023-01-30T03:22:27;93865.59;;;-0.89;100.00
10261;BME280;5175;42.606;23.388;2023-01-30T03:24:53;93862.25;;;-1.09;100.00
10261;BME280;5175;42.606;23.388;2023-01-30T03:27:20;93835.09;;;-1.28;100.00
10261;BME280;5175;42.606;23.388;2023-01-30T03:29:48;93862.88;;;-1.20;100.00
10261;BME280;5175;42.606;23.388;2023-01-30T03:32:14;93848.97;;;-1.14;100.00
10261;BME280;5175;42.606;23.388;2023-01-30T03:34:41;93844.53;;;-1.20;100.00
10261;BME280;5175;42.606;23.388;2023-01-30T03:37:09;93853.38;;;-1.15;100.00
10261;BME280;5175;42.606;23.388;2023-01-30T03:39:36;93848.56;;;-1.18;100.00
10261;BME280;5175;42.606;23.388;2023-01-30T03:42:03;93848.94;;;-1.01;100.00
10261;BME280;5175;42.606;23.388;2023-01-30T03:44:30;93848.31;;;-0.97;100.00
10261;BME280;5175;42.606;23.388;2023-01-30T03:46:56;93849.72;;;-0.94;100.00
10261;BME280;5175;42.606;23.388;2023-01-30T03:49:23;93854.13;;;-0.88;100.00
10261;BME280;5175;42.606;23.388;2023-01-30T03:51:50;93855.75;;;-0.94;100.00
10261;BME280;5175;42.606;23.388;2023-01-30T03:54:18;93845.69;;;-0.90;100.00
10261;BME280;5175;42.606;23.388;2023-01-30T03:56:45;93843.69;;;-1.01;100.00
10261;BME280;5175;42.606;23.388;2023-01-30T03:59:12;93850.91;;;-0.90;100.00
10261;BME280;5175;42.606;23.388;2023-01-30T04:01:38;93815.31;;;-1.04;100.00
10261;BME280;5175;42.606;23.388;2023-01-30T04:04:05;93837.31;;;-1.18;100.00
10261;BME280;5175;42.606;23.388;2023-01-30T04:06:32;93841.66;;;-0.99;100.00
10261;BME280;5175;42.606;23.388;2023-01-30T04:08:59;93838.03;;;-0.92;100.00
10261;BME280;5175;42.606;23.388;2023-01-30T04:11:27;93842.22;;;-0.84;100.00
10261;BME280;5175;42.606;23.388;2023-01-30T04:13:53;93845.00;;;-0.79;100.00
10261;BME280;5175;42.606;23.388;2023-01-30T04:16:22;93809.44;;;-0.93;100.00
10261;BME280;5175;42.606;23.388;2023-01-30T04:18:49;93833.94;;;-0.75;100.00
10261;BME280;5175;42.606;23.388;2023-01-30T04:21:16;93842.75;;;-0.69;100.00
10261;BME280;5175;42.606;23.388;2023-01-30T04:23:43;93842.28;;;-0.53;100.00
10261;BME280;5175;42.606;23.388;2023-01-30T04:26:11;93843.56;;;-0.62;100.00
10261;BME280;5175;42.606;23.388;2023-01-30T04:28:40;93837.34;;;-0.74;100.00
10261;BME280;5175;42.606;23.388;2023-01-30T04:31:07;93846.19;;;-0.69;100.00
10261;BME280;5175;42.606;23.388;2023-01-30T04:33:34;93840.19;;;-0.76;100.00
10261;BME280;5175;42.606;23.388;2023-01-30T04:36:02;93839.59;;;-0.84;100.00
10261;BME280;5175;42.606;23.388;2023-01-30T04:38:30;93836.56;;;-0.81;100.00
10261;BME280;5175;42.606;23.388;2023-01-30T04:40:58;93825.31;;;-0.88;100.00
10261;BME280;5175;42.606;23.388;2023-01-30T04:43:26;93807.03;;;-1.01;100.00
10261;BME280;5175;42.606;23.388;2023-01-30T04:45:55;93848.09;;;-0.89;100.00
10261;BME280;5175;42.606;23.388;2023-01-30T04:48:22;93828.94;;;-0.89;100.00
10261;BME280;5175;42.606;23.388;2023-01-30T04:50:53;93851.47;;;-0.82;100.00
10261;BME280;5175;42.606;23.388;2023-01-30T04:53:20;93817.69;;;-0.96;100.00
10261;BME280;5175;42.606;23.388;2023-01-30T04:55:47;93823.47;;;-0.81;100.00
10261;BME280;5175;42.606;23.388;2023-01-30T04:58:15;93815.09;;;-0.96;100.00
10261;BME280;5175;42.606;23.388;2023-01-30T05:00:43;93818.69;;;-0.91;100.00
10261;BME280;5175;42.606;23.388;2023-01-30T05:03:11;93815.66;;;-0.94;100.00
10261;BME280;5175;42.606;23.388;2023-01-30T05:05:38;93819.03;;;-0.81;100.00
10261;BME280;5175;42.606;23.388;2023-01-30T05:08:06;93812.13;;;-0.69;100.00
10261;BME280;5175;42.606;23.388;2023-01-30T05:10:32;93818.88;;;-0.86;100.00
10261;BME280;5175;42.606;23.388;2023-01-30T05:13:02;93814.84;;;-0.88;100.00
10261;BME280;5175;42.606;23.388;2023-01-30T05:15:29;93812.25;;;-0.95;100.00
10261;BME280;5175;42.606;23.388;2023-01-30T05:17:56;93815.00;;;-0.77;100.00
10261;BME280;5175;42.606;23.388;2023-01-30T05:20:24;93819.88;;;-0.87;100.00
10261;BME280;5175;42.606;23.388;2023-01-30T05:22:51;93827.94;;;-0.88;100.00
10261;BME280;5175;42.606;23.388;2023-01-30T05:25:18;93818.88;;;-0.86;100.00
10261;BME280;5175;42.606;23.388;2023-01-30T05:27:44;93826.91;;;-0.81;100.00
10261;BME280;5175;42.606;23.388;2023-01-30T05:30:11;93828.16;;;-0.96;100.00
10261;BME280;5175;42.606;23.388;2023-01-30T05:32:38;93823.75;;;-0.96;100.00
10261;BME280;5175;42.606;23.388;2023-01-30T05:35:06;93817.91;;;-0.98;100.00
10261;BME280;5175;42.606;23.388;2023-01-30T05:37:34;93828.16;;;-0.96;100.00
10261;BME280;5175;42.606;23.388;2023-01-30T05:40:02;93821.31;;;-0.97;100.00
10261;BME280;5175;42.606;23.388;2023-01-30T05:42:30;93824.09;;;-0.86;100.00
10261;BME280;5175;42.606;23.388;2023-01-30T05:44:56;93813.81;;;-0.87;100.00
10261;BME280;5175;42.606;23.388;2023-01-30T05:47:23;93817.47;;;-0.95;100.00
10261;BME280;5175;42.606;23.388;2023-01-30T05:49:50;93822.34;;;-1.05;100.00
10261;BME280;5175;42.606;23.388;2023-01-30T05:52:16;93820.94;;;-1.01;100.00
10261;BME280;5175;42.606;23.388;2023-01-30T05:54:44;93829.78;;;-0.95;100.00
10261;BME280;5175;42.606;23.388;2023-01-30T05:57:11;93821.50;;;-0.92;100.00
10261;BME280;5175;42.606;23.388;2023-01-30T05:59:38;93826.28;;;-0.76;100.00
10261;BME280;5175;42.606;23.388;2023-01-30T06:02:05;93822.06;;;-0.84;100.00
10261;BME280;5175;42.606;23.388;2023-01-30T06:04:31;93835.22;;;-0.90;100.00
10261;BME280;5175;42.606;23.388;2023-01-30T06:06:59;93829.75;;;-0.89;100.00
10261;BME280;5175;42.606;23.388;2023-01-30T06:09:26;93833.03;;;-1.06;100.00
10261;BME280;5175;42.606;23.388;2023-01-30T06:11:54;93826.03;;;-1.19;100.00
10261;BME280;5175;42.606;23.388;2023-01-30T06:14:21;93827.75;;;-0.93;100.00
10261;BME280;5175;42.606;23.388;2023-01-30T06:16:48;93833.59;;;-0.91;100.00
10261;BME280;5175;42.606;23.388;2023-01-30T06:19:14;93821.50;;;-0.86;100.00
10261;BME280;5175;42.606;23.388;2023-01-30T06:21:41;93812.06;;;-0.93;100.00
10261;BME280;5175;42.606;23.388;2023-01-30T06:24:08;93824.88;;;-0.79;100.00
10261;BME280;5175;42.606;23.388;2023-01-30T06:26:34;93820.22;;;-0.77;100.00
10261;BME280;5175;42.606;23.388;2023-01-30T06:29:02;93819.47;;;-0.84;100.00
10261;BME280;5175;42.606;23.388;2023-01-30T06:31:29;93813.19;;;-0.76;100.00
10261;BME280;5175;42.606;23.388;2023-01-30T06:33:56;93816.25;;;-0.86;100.00
10261;BME280;5175;42.606;23.388;2023-01-30T06:36:22;93816.19;;;-0.73;100.00
10261;BME280;5175;42.606;23.388;2023-01-30T06:38:49;93813.59;;;-0.79;100.00
10261;BME280;5175;42.606;23.388;2023-01-30T06:41:16;93820.44;;;-0.78;100.00
10261;BME280;5175;42.606;23.388;2023-01-30T06:43:42;93813.44;;;-0.91;100.00
10261;BME280;5175;42.606;23.388;2023-01-30T06:46:10;93824.75;;;-0.90;100.00
10261;BME280;5175;42.606;23.388;2023-01-30T06:48:37;93809.44;;;-0.93;100.00
10261;BME280;5175;42.606;23.388;2023-01-30T06:51:04;93812.88;;;-0.93;100.00
10261;BME280;5175;42.606;23.388;2023-01-30T06:53:31;93814.72;;;-1.06;100.00
10261;BME280;5175;42.606;23.388;2023-01-30T06:55:59;93823.34;;;-0.93;100.00
10261;BME280;5175;42.606;23.388;2023-01-30T06:58:27;93834.72;;;-0.74;100.00
10261;BME280;5175;42.606;23.388;2023-01-30T07:00:53;93836.97;;;-0.78;100.00
10261;BME280;5175;42.606;23.388;2023-01-30T07:03:21;93840.41;;;-0.84;100.00
10261;BME280;5175;42.606;23.388;2023-01-30T07:05:48;93836.06;;;-1.09;100.00
10261;BME280;5175;42.606;23.388;2023-01-30T07:08:15;93831.81;;;-1.10;100.00
10261;BME280;5175;42.606;23.388;2023-01-30T07:10:43;93845.25;;;-0.87;100.00
10261;BME280;5175;42.606;23.388;2023-01-30T07:13:10;93829.53;;;-0.81;100.00
10261;BME280;5175;42.606;23.388;2023-01-30T07:15:37;93851.81;;;-0.65;100.00
10261;BME280;5175;42.606;23.388;2023-01-30T07:18:04;93842.56;;;-0.68;100.00
10261;BME280;5175;42.606;23.388;2023-01-30T07:20:33;93857.66;;;-0.63;100.00
10261;BME280;5175;42.606;23.388;2023-01-30T07:23:00;93854.78;;;-0.55;100.00
10261;BME280;5175;42.606;23.388;2023-01-30T07:25:27;93848.72;;;-0.49;100.00
10261;BME280;5175;42.606;23.388;2023-01-30T07:27:57;93852.00;;;-0.67;100.00
10261;BME280;5175;42.606;23.388;2023-01-30T07:30:24;93857.88;;;-0.71;100.00
10261;BME280;5175;42.606;23.388;2023-01-30T07:32:52;93849.25;;;-0.78;100.00
10261;BME280;5175;42.606;23.388;2023-01-30T07:35:20;93864.00;;;-0.90;100.00
10261;BME280;5175;42.606;23.388;2023-01-30T07:37:49;93851.34;;;-1.00;100.00
10261;BME280;5175;42.606;23.388;2023-01-30T07:40:17;93863.84;;;-1.02;100.00
10261;BME280;5175;42.606;23.388;2023-01-30T07:42:54;93856.16;;;-0.97;100.00
10261;BME280;5175;42.606;23.388;2023-01-30T07:45:22;93871.25;;;-0.92;100.00
10261;BME280;5175;42.606;23.388;2023-01-30T07:47:49;93836.03;;;-0.96;100.00
10261;BME280;5175;42.606;23.388;2023-01-30T07:50:16;93861.34;;;-0.77;100.00
10261;BME280;5175;42.606;23.388;2023-01-30T07:52:43;93860.50;;;-0.71;100.00
10261;BME280;5175;42.606;23.388;2023-01-30T07:55:11;93848.81;;;-0.69;100.00
10261;BME280;5175;42.606;23.388;2023-01-30T07:57:37;93860.63;;;-0.53;100.00
10261;BME280;5175;42.606;23.388;2023-01-30T08:00:06;93852.41;;;-0.63;100.00
10261;BME280;5175;42.606;23.388;2023-01-30T08:02:36;93841.03;;;-0.88;100.00
10261;BME280;5175;42.606;23.388;2023-01-30T08:05:03;93830.41;;;-0.55;100.00
10261;BME280;5175;42.606;23.388;2023-01-30T08:07:30;93833.09;;;-0.69;100.00
10261;BME280;5175;42.606;23.388;2023-01-30T08:09:57;93832.25;;;-0.63;100.00
10261;BME280;5175;42.606;23.388;2023-01-30T08:12:25;93829.56;;;-0.49;100.00
10261;BME280;5175;42.606;23.388;2023-01-30T08:14:52;93822.53;;;-0.49;100.00
10261;BME280;5175;42.606;23.388;2023-01-30T08:17:18;93824.94;;;-0.47;100.00
10261;BME280;5175;42.606;23.388;2023-01-30T08:19:45;93828.19;;;-0.52;100.00
10261;BME280;5175;42.606;23.388;2023-01-30T08:22:12;93820.78;;;-0.30;100.00
10261;BME280;5175;42.606;23.388;2023-01-30T08:24:39;93828.88;;;-0.32;100.00
10261;BME280;5175;42.606;23.388;2023-01-30T08:27:06;93828.41;;;-0.22;100.00
10261;BME280;5175;42.606;23.388;2023-01-30T08:29:34;93832.41;;;-0.20;100.00
10261;BME280;5175;42.606;23.388;2023-01-30T08:32:01;93823.16;;;-0.22;100.00
10261;BME280;5175;42.606;23.388;2023-01-30T08:34:27;93825.31;;;-0.13;100.00
10261;BME280;5175;42.606;23.388;2023-01-30T08:36:54;93811.94;;;-0.05;100.00
10261;BME280;5175;42.606;23.388;2023-01-30T08:39:21;93815.50;;;0.32;100.00
10261;BME280;5175;42.606;23.388;2023-01-30T08:41:47;93820.63;;;0.45;100.00
10261;BME280;5175;42.606;23.388;2023-01-30T08:44:14;93810.09;;;0.27;100.00
10261;BME280;5175;42.606;23.388;2023-01-30T08:46:42;93816.19;;;0.21;100.00
10261;BME280;5175;42.606;23.388;2023-01-30T08:49:09;93809.16;;;0.40;100.00
10261;BME280;5175;42.606;23.388;2023-01-30T08:51:36;93813.59;;;0.39;100.00
10261;BME280;5175;42.606;23.388;2023-01-30T08:54:03;93819.16;;;0.49;100.00
10261;BME280;5175;42.606;23.388;2023-01-30T08:56:31;93814.28;;;0.53;100.00
10261;BME280;5175;42.606;23.388;2023-01-30T08:58:58;93810.56;;;0.42;100.00
10261;BME280;5175;42.606;23.388;2023-01-30T09:01:25;93808.34;;;0.39;100.00
10261;BME280;5175;42.606;23.388;2023-01-30T09:03:53;93800.75;;;0.31;100.00
10261;BME280;5175;42.606;23.388;2023-01-30T09:06:20;93805.53;;;0.41;100.00
10261;BME280;5175;42.606;23.388;2023-01-30T09:08:46;93798.25;;;0.43;100.00
10261;BME280;5175;42.606;23.388;2023-01-30T09:11:13;93773.09;;;0.11;100.00
10261;BME280;5175;42.606;23.388;2023-01-30T09:13:40;93796.81;;;0.22;100.00
10261;BME280;5175;42.606;23.388;2023-01-30T09:16:08;93792.09;;;0.31;100.00
10261;BME280;5175;42.606;23.388;2023-01-30T09:18:37;93786.34;;;0.40;100.00
10261;BME280;5175;42.606;23.388;2023-01-30T09:21:05;93783.81;;;0.52;100.00
10261;BME280;5175;42.606;23.388;2023-01-30T09:23:32;93784.75;;;0.57;100.00
10261;BME280;5175;42.606;23.388;2023-01-30T09:25:59;93783.19;;;0.56;100.00
10261;BME280;5175;42.606;23.388;2023-01-30T09:28:26;93789.59;;;0.60;100.00
10261;BME280;5175;42.606;23.388;2023-01-30T09:30:55;93776.16;;;0.50;100.00
10261;BME280;5175;42.606;23.388;2023-01-30T09:33:22;93788.19;;;0.58;100.00
10261;BME280;5175;42.606;23.388;2023-01-30T09:35:50;93804.19;;;0.56;100.00
10261;BME280;5175;42.606;23.388;2023-01-30T09:38:18;93794.84;;;0.60;100.00
10261;BME280;5175;42.606;23.388;2023-01-30T09:40:53;93787.78;;;0.61;100.00
10261;BME280;5175;42.606;23.388;2023-01-30T09:43:37;93773.31;;;0.52;100.00
10261;BME280;5175;42.606;23.388;2023-01-30T09:46:15;93778.28;;;0.60;100.00
10261;BME280;5175;42.606;23.388;2023-01-30T09:48:53;93773.91;;;0.72;100.00
10261;BME280;5175;42.606;23.388;2023-01-30T09:51:50;93777.19;;;0.86;100.00
10261;BME280;5175;42.606;23.388;2023-01-30T09:54:25;93771.81;;;0.81;100.00
10261;BME280;5175;42.606;23.388;2023-01-30T09:57:07;93764.06;;;0.68;100.00
10261;BME280;5175;42.606;23.388;2023-01-30T09:59:47;93757.88;;;0.80;100.00
10261;BME280;5175;42.606;23.388;2023-01-30T10:02:27;93740.38;;;0.56;100.00
10261;BME280;5175;42.606;23.388;2023-01-30T10:04:57;93757.78;;;0.50;100.00
10261;BME280;5175;42.606;23.388;2023-01-30T10:07:34;93751.69;;;0.56;100.00
10261;BME280;5175;42.606;23.388;2023-01-30T10:10:10;93743.44;;;0.71;100.00
10261;BME280;5175;42.606;23.388;2023-01-30T10:12:46;93745.41;;;0.57;100.00
10261;BME280;5175;42.606;23.388;2023-01-30T10:15:28;93730.69;;;0.38;100.00
10261;BME280;5175;42.606;23.388;2023-01-30T10:18:14;93722.44;;;0.53;100.00
10261;BME280;5175;42.606;23.388;2023-01-30T10:20:51;93721.78;;;0.76;100.00
10261;BME280;5175;42.606;23.388;2023-01-30T10:23:28;93709.06;;;0.91;100.00
10261;BME280;5175;42.606;23.388;2023-01-30T10:26:06;93702.56;;;0.93;100.00
10261;BME280;5175;42.606;23.388;2023-01-30T10:28:38;93701.97;;;1.09;100.00
10261;BME280;5175;42.606;23.388;2023-01-30T10:31:09;93705.75;;;0.95;100.00
10261;BME280;5175;42.606;23.388;2023-01-30T10:33:40;93700.47;;;0.84;100.00
10261;BME280;5175;42.606;23.388;2023-01-30T10:36:11;93687.09;;;0.85;100.00
10261;BME280;5175;42.606;23.388;2023-01-30T10:38:43;93685.16;;;0.81;100.00
10261;BME280;5175;42.606;23.388;2023-01-30T10:41:20;93691.78;;;0.83;100.00
10261;BME280;5175;42.606;23.388;2023-01-30T10:43:57;93680.59;;;0.58;100.00
10261;BME280;5175;42.606;23.388;2023-01-30T10:49:17;93670.47;;;0.61;100.00
10261;BME280;5175;42.606;23.388;2023-01-30T10:51:53;93671.38;;;0.67;100.00
10261;BME280;5175;42.606;23.388;2023-01-30T10:54:25;93670.38;;;0.50;100.00
10261;BME280;5175;42.606;23.388;2023-01-30T10:57:00;93661.13;;;0.66;100.00
10261;BME280;5175;42.606;23.388;2023-01-30T10:59:40;93659.22;;;0.54;100.00
10261;BME280;5175;42.606;23.388;2023-01-30T11:02:23;93645.09;;;0.37;100.00
10261;BME280;5175;42.606;23.388;2023-01-30T11:04:56;93639.56;;;0.45;100.00
10261;BME280;5175;42.606;23.388;2023-01-30T11:07:23;93626.28;;;0.40;100.00
10261;BME280;5175;42.606;23.388;2023-01-30T11:09:49;93618.34;;;0.29;100.00
10261;BME280;5175;42.606;23.388;2023-01-30T11:12:17;93616.13;;;0.62;100.00
10261;BME280;5175;42.606;23.388;2023-01-30T11:14:52;93619.00;;;0.72;100.00
10261;BME280;5175;42.606;23.388;2023-01-30T11:17:20;93612.06;;;0.48;100.00
10261;BME280;5175;42.606;23.388;2023-01-30T11:19:53;93616.59;;;0.59;100.00
10261;BME280;5175;42.606;23.388;2023-01-30T11:22:23;93607.72;;;0.24;100.00
10261;BME280;5175;42.606;23.388;2023-01-30T11:24:59;93604.50;;;0.40;100.00
10261;BME280;5175;42.606;23.388;2023-01-30T11:27:29;93599.00;;;0.41;100.00
10261;BME280;5175;42.606;23.388;2023-01-30T11:30:05;93594.75;;;0.11;100.00
10261;BME280;5175;42.606;23.388;2023-01-30T11:32:35;93564.38;;;0.03;100.00
10261;BME280;5175;42.606;23.388;2023-01-30T11:35:19;93586.72;;;0.06;100.00
10261;BME280;5175;42.606;23.388;2023-01-30T11:37:46;93576.09;;;0.00;100.00
10261;BME280;5175;42.606;23.388;2023-01-30T11:40:22;93571.47;;;0.03;100.00
10261;BME280;5175;42.606;23.388;2023-01-30T11:42:57;93565.13;;;0.10;100.00
10261;BME280;5175;42.606;23.388;2023-01-30T11:45:24;93568.66;;;0.16;100.00
10261;BME280;5175;42.606;23.388;2023-01-30T11:47:56;93556.72;;;0.20;100.00
10261;BME280;5175;42.606;23.388;2023-01-30T11:50:28;93560.88;;;0.27;100.00
10261;BME280;5175;42.606;23.388;2023-01-30T11:53:01;93551.88;;;0.35;100.00
10261;BME280;5175;42.606;23.388;2023-01-30T11:55:31;93549.25;;;0.05;100.00
10261;BME280;5175;42.606;23.388;2023-01-30T11:58:01;93549.25;;;-0.13;100.00
10261;BME280;5175;42.606;23.388;2023-01-30T12:00:41;93535.38;;;-0.02;100.00
10261;BME280;5175;42.606;23.388;2023-01-30T12:03:10;93534.25;;;-0.06;100.00
10261;BME280;5175;42.606;23.388;2023-01-30T12:05:39;93517.31;;;0.08;100.00
10261;BME280;5175;42.606;23.388;2023-01-30T12:08:12;93521.00;;;0.19;100.00
10261;BME280;5175;42.606;23.388;2023-01-30T12:10:40;93509.06;;;0.23;100.00
10261;BME280;5175;42.606;23.388;2023-01-30T12:13:14;93482.03;;;0.22;100.00
10261;BME280;5175;42.606;23.388;2023-01-30T12:15:43;93497.34;;;0.25;100.00
10261;BME280;5175;42.606;23.388;2023-01-30T12:18:18;93494.44;;;0.45;100.00
10261;BME280;5175;42.606;23.388;2023-01-30T12:20:50;93489.34;;;0.61;100.00
10261;BME280;5175;42.606;23.388;2023-01-30T12:23:24;93491.63;;;0.58;100.00
10261;BME280;5175;42.606;23.388;2023-01-30T12:25:58;93487.53;;;0.85;100.00
10261;BME280;5175;42.606;23.388;2023-01-30T12:28:33;93495.47;;;0.97;100.00
10261;BME280;5175;42.606;23.388;2023-01-30T12:31:07;93498.53;;;0.94;100.00
10261;BME280;5175;42.606;23.388;2023-01-30T12:33:37;93490.97;;;0.86;100.00
10261;BME280;5175;42.606;23.388;2023-01-30T12:36:10;93487.13;;;1.00;100.00
10261;BME280;5175;42.606;23.388;2023-01-30T12:38:55;93482.09;;;0.98;100.00
10261;BME280;5175;42.606;23.388;2023-01-30T12:41:30;93481.06;;;0.99;100.00
10261;BME280;5175;42.606;23.388;2023-01-30T12:44:20;93478.31;;;1.06;100.00
10261;BME280;5175;42.606;23.388;2023-01-30T12:47:05;93468.16;;;0.98;100.00
10261;BME280;5175;42.606;23.388;2023-01-30T12:49:56;93459.63;;;1.02;100.00
10261;BME280;5175;42.606;23.388;2023-01-30T12:55:27;93454.69;;;1.41;100.00
10261;BME280;5175;42.606;23.388;2023-01-30T12:57:59;93448.50;;;1.23;100.00
10261;BME280;5175;42.606;23.388;2023-01-30T13:00:40;93445.78;;;1.30;100.00
10261;BME280;5175;42.606;23.388;2023-01-30T13:03:22;93443.25;;;1.00;100.00
10261;BME280;5175;42.606;23.388;2023-01-30T13:05:59;93447.94;;;1.21;100.00
10261;BME280;5175;42.606;23.388;2023-01-30T13:08:52;93440.72;;;1.28;100.00
10261;BME280;5175;42.606;23.388;2023-01-30T13:11:44;93444.38;;;1.39;100.00
10261;BME280;5175;42.606;23.388;2023-01-30T13:14:21;93456.66;;;1.10;100.00
10261;BME280;5175;42.606;23.388;2023-01-30T13:17:03;93445.91;;;1.12;100.00
10261;BME280;5175;42.606;23.388;2023-01-30T13:19:39;93436.06;;;1.19;100.00